Time;durP1;ratioP1;P1;durP2;ratioP2;P2;SDS_P1;SDS_P2;PMS_P1;PMS_P2;Temp;Humidity;BMP_temperature;BMP_pressure;BME280_temperature;BME280_humidity;BME280_pressure;Samples;Min_cycle;Max_cycle;Signal;HPM_P1;HPM_P2
2023/07/04 00:00:59;;;;;;;3.28;2.00;;;;;;;14.46;100.00;101026.63;5031154;28;20532;-68
2023/07/04 00:03:27;;;;;;;6.43;2.47;;;;;;;14.38;100.00;101034.94;5030981;28;20554;-68
2023/07/04 00:05:54;;;;;;;6.60;2.35;;;;;;;14.41;100.00;101030.00;5031409;28;20041;-68
2023/07/04 00:08:21;;;;;;;5.32;2.90;;;;;;;14.38;100.00;101037.63;5039998;28;20488;-68
2023/07/04 00:10:46;;;;;;;8.85;3.47;;;;;;;14.31;100.00;101024.28;5050024;28;20052;-68
2023/07/04 00:13:12;;;;;;;12.90;3.75;;;;;;;14.30;100.00;101021.78;5032181;28;20082;-68
2023/07/04 00:15:46;;;;;;;11.32;2.30;;;;;;;14.28;100.00;101011.31;5049909;28;20097;-68
2023/07/04 00:18:12;;;;;;;10.45;3.30;;;;;;;14.32;100.00;101025.91;5049916;28;20021;-68
2023/07/04 00:20:37;;;;;;;7.78;2.60;;;;;;;14.34;100.00;101021.16;5030114;28;20599;-68
2023/07/04 00:23:04;;;;;;;4.45;2.35;;;;;;;14.38;100.00;101019.69;5012374;28;20044;-68
2023/07/04 00:25:31;;;;;;;8.93;2.40;;;;;;;14.45;100.00;101014.25;5030698;28;20059;-68
2023/07/04 00:27:57;;;;;;;6.13;2.90;;;;;;;14.42;100.00;101012.84;5030607;28;20026;-68
2023/07/04 00:30:22;;;;;;;6.60;2.45;;;;;;;14.43;100.00;101009.09;5030479;28;20029;-68
2023/07/04 00:32:48;;;;;;;6.57;1.90;;;;;;;14.40;100.00;101006.84;5030539;28;20025;-68
2023/07/04 00:35:13;;;;;;;8.98;3.22;;;;;;;14.36;100.00;101010.22;5030390;28;20072;-68
2023/07/04 00:37:38;;;;;;;4.88;2.03;;;;;;;14.34;100.00;101009.59;5030470;28;20029;-67
2023/07/04 00:40:09;;;;;;;10.65;2.53;;;;;;;14.31;100.00;101010.88;5030535;28;20036;-68
2023/07/04 00:42:36;;;;;;;8.60;2.55;;;;;;;14.28;100.00;101011.31;5030317;28;20026;-68
2023/07/04 00:45:09;;;;;;;6.40;2.63;;;;;;;14.27;100.00;101009.63;5030262;28;20401;-67
2023/07/04 00:47:43;;;;;;;11.35;2.42;;;;;;;14.22;100.00;101002.22;5030147;28;20048;-67
2023/07/04 00:50:13;;;;;;;6.65;2.40;;;;;;;14.17;100.00;100995.88;5030312;28;20079;-67
2023/07/04 00:52:39;;;;;;;8.38;3.53;;;;;;;14.06;100.00;101001.94;5030217;28;20099;-67
2023/07/04 00:55:09;;;;;;;7.95;2.90;;;;;;;14.04;100.00;100999.47;5030205;28;20472;-67
2023/07/04 00:57:37;;;;;;;10.55;2.30;;;;;;;13.99;100.00;100999.28;5033780;28;20174;-68
2023/07/04 01:00:19;;;;;;;8.90;2.22;;;;;;;13.96;100.00;101003.25;5049021;28;20086;-67
2023/07/04 01:02:50;;;;;;;7.18;2.92;;;;;;;13.93;100.00;101002.84;5049127;28;20028;-67
2023/07/04 01:05:23;;;;;;;8.07;2.43;;;;;;;13.91;100.00;101000.41;5048922;28;20056;-67
2023/07/04 01:07:58;;;;;;;8.45;2.80;;;;;;;13.92;100.00;101002.03;5048965;28;20024;-67
2023/07/04 01:10:32;;;;;;;3.53;2.65;;;;;;;13.90;100.00;101003.28;5048895;28;20033;-67
2023/07/04 01:12:58;;;;;;;8.27;3.03;;;;;;;13.93;100.00;101000.97;5049127;28;20052;-67
2023/07/04 01:15:24;;;;;;;8.25;3.17;;;;;;;13.91;100.00;100996.88;5048966;28;20041;-67
2023/07/04 01:17:53;;;;;;;14.05;3.97;;;;;;;13.94;100.00;101002.63;5048808;28;20361;-67
2023/07/04 01:20:19;;;;;;;12.27;4.85;;;;;;;13.97;100.00;100996.03;5048758;28;20108;-67
2023/07/04 01:23:10;;;;;;;8.82;3.90;;;;;;;13.97;100.00;100993.34;5048573;28;20029;-67
2023/07/04 01:25:47;;;;;;;8.63;3.08;;;;;;;13.95;100.00;101006.94;5048712;28;20078;-67
2023/07/04 01:28:13;;;;;;;13.35;3.55;;;;;;;13.94;100.00;101005.31;5048550;28;20028;-67
2023/07/04 01:30:42;;;;;;;13.23;4.35;;;;;;;13.94;100.00;101007.19;5048557;28;20060;-67
2023/07/04 01:33:09;;;;;;;13.13;3.75;;;;;;;13.94;100.00;101005.31;5048839;28;20024;-67
2023/07/04 01:35:35;;;;;;;13.68;3.97;;;;;;;13.93;100.00;101005.53;5048451;28;20032;-67
2023/07/04 01:38:01;;;;;;;12.98;3.80;;;;;;;13.93;100.00;101003.66;5048743;28;20033;-67
2023/07/04 01:40:27;;;;;;;10.50;3.83;;;;;;;13.96;100.00;101003.25;5048553;28;20033;-67
2023/07/04 01:42:53;;;;;;;14.90;4.63;;;;;;;13.96;100.00;101002.41;5048511;28;20033;-67
2023/07/04 01:45:19;;;;;;;19.08;4.85;;;;;;;14.02;100.00;101007.75;5029258;28;20033;-67
2023/07/04 01:47:44;;;;;;;16.20;4.20;;;;;;;14.03;100.00;101005.88;5029288;28;20060;-67
2023/07/04 01:50:11;;;;;;;17.20;3.90;;;;;;;14.07;100.00;100999.06;5011575;28;20029;-67
2023/07/04 01:52:38;;;;;;;10.80;4.57;;;;;;;14.05;100.00;101001.13;5029266;28;20084;-67
2023/07/04 01:55:04;;;;;;;9.23;4.75;;;;;;;14.03;100.00;101001.34;5046460;28;20538;-67
2023/07/04 01:57:30;;;;;;;14.85;5.18;;;;;;;14.07;100.00;101000.91;5048251;28;20044;-67
2023/07/04 01:59:55;;;;;;;16.65;3.42;;;;;;;14.03;100.00;100992.47;5048320;28;20459;-67
2023/07/04 02:02:21;;;;;;;14.18;4.40;;;;;;;14.11;100.00;101002.94;5013935;28;20039;-68
2023/07/04 02:04:46;;;;;;;16.38;4.13;;;;;;;14.14;100.00;100999.81;5030486;28;20034;-68
2023/07/04 02:07:12;;;;;;;14.10;4.07;;;;;;;14.18;100.00;100995.69;5048189;28;20041;-67
2023/07/04 02:09:37;;;;;;;14.90;4.00;;;;;;;14.22;100.00;100991.50;5048603;28;20139;-67
2023/07/04 02:12:03;;;;;;;16.42;4.22;;;;;;;14.23;100.00;100990.47;5048174;28;20121;-67
2023/07/04 02:14:28;;;;;;;18.75;4.32;;;;;;;14.26;100.00;100986.53;5048179;28;20126;-67
2023/07/04 02:16:54;;;;;;;14.95;4.45;;;;;;;14.35;100.00;101000.50;5048318;28;20047;-67
2023/07/04 02:19:19;;;;;;;14.35;4.10;;;;;;;14.38;100.00;100987.50;5048177;28;20107;-67
2023/07/04 02:21:44;;;;;;;11.88;4.05;;;;;;;14.40;100.00;100992.63;5030301;28;20028;-67
2023/07/04 02:24:10;;;;;;;10.88;3.60;;;;;;;14.41;99.47;101003.16;5048047;28;20464;-67
2023/07/04 02:26:35;;;;;;;10.43;3.63;;;;;;;14.44;100.00;101002.72;5048087;28;20033;-67
2023/07/04 02:29:01;;;;;;;11.23;4.07;;;;;;;14.26;100.00;100981.19;5048619;28;20041;-68
2023/07/04 02:31:27;;;;;;;12.05;3.15;;;;;;;14.44;100.00;101002.72;5047919;28;20029;-67
2023/07/04 02:33:52;;;;;;;16.20;4.38;;;;;;;14.48;100.00;101022.69;5030063;28;20037;-68
2023/07/04 02:36:18;;;;;;;16.55;4.85;;;;;;;14.43;100.00;101011.78;5047801;28;20059;-67
2023/07/04 02:38:44;;;;;;;11.20;4.53;;;;;;;14.33;100.00;101014.16;5048047;28;20029;-68
2023/07/04 02:41:10;;;;;;;12.50;4.88;;;;;;;14.11;100.00;101010.16;5030084;28;20177;-68
2023/07/04 02:43:35;;;;;;;9.38;3.35;;;;;;;14.06;100.00;101010.81;5024432;28;20033;-68
2023/07/04 02:46:03;;;;;;;13.57;4.78;;;;;;;13.91;100.00;101000.41;5031686;28;20409;-68
2023/07/04 02:48:29;;;;;;;10.35;4.20;;;;;;;13.79;100.00;101004.78;5032657;28;20040;-68
2023/07/04 02:50:54;;;;;;;15.05;5.43;;;;;;;13.73;100.00;101005.66;5036006;28;20558;-68
2023/07/04 02:53:22;;;;;;;14.90;5.53;;;;;;;13.71;100.00;101005.84;5034489;28;20112;-68
2023/07/04 02:55:49;;;;;;;14.95;6.80;;;;;;;13.70;100.00;100998.00;5051412;28;20494;-68
2023/07/04 02:58:15;;;;;;;16.77;5.63;;;;;;;13.68;100.00;100984.03;5051362;28;20036;-68
2023/07/04 03:00:41;;;;;;;16.75;7.00;;;;;;;13.67;100.00;100979.69;5046575;28;20419;-68
2023/07/04 03:03:08;;;;;;;13.98;5.00;;;;;;;13.73;100.00;100986.88;5032932;28;20026;-68
2023/07/04 03:05:35;;;;;;;18.80;6.25;;;;;;;13.75;100.00;100990.16;5032604;28;20041;-69
2023/07/04 03:08:00;;;;;;;15.68;5.40;;;;;;;13.78;100.00;100995.06;5042090;28;20060;-69
2023/07/04 03:10:26;;;;;;;14.68;7.05;;;;;;;13.81;100.00;101005.41;5050907;28;20170;-68
2023/07/04 03:12:51;;;;;;;17.27;6.38;;;;;;;13.81;100.00;101005.41;5051076;28;20029;-69
2023/07/04 03:15:17;;;;;;;17.98;5.57;;;;;;;13.82;100.00;101007.84;5050948;28;20044;-69
2023/07/04 03:17:42;;;;;;;15.32;4.80;;;;;;;13.84;100.00;101006.81;5042569;28;20062;-68
2023/07/04 03:20:10;;;;;;;13.77;4.65;;;;;;;13.87;100.00;101003.72;5018180;28;20384;-68
2023/07/04 03:22:37;;;;;;;13.07;4.57;;;;;;;13.86;100.00;101004.72;5034504;28;20564;-68
2023/07/04 03:25:02;;;;;;;10.98;4.95;;;;;;;13.86;100.00;101002.91;5045344;28;20107;-69
2023/07/04 03:27:28;;;;;;;16.23;4.43;;;;;;;13.87;100.00;101004.53;5042880;28;20037;-69
2023/07/04 03:29:53;;;;;;;11.75;4.35;;;;;;;13.84;100.00;101001.47;5040143;28;20065;-69
2023/07/04 03:32:18;;;;;;;10.43;4.85;;;;;;;13.89;100.00;101007.81;5036575;28;20032;-69
2023/07/04 03:34:44;;;;;;;14.63;5.05;;;;;;;13.86;100.00;101000.22;5039573;28;20033;-69
2023/07/04 03:37:09;;;;;;;11.80;4.55;;;;;;;13.87;100.00;101003.72;5050555;28;20033;-69
2023/07/04 03:39:35;;;;;;;13.75;4.63;;;;;;;13.86;100.00;101005.56;5042680;28;20026;-69
2023/07/04 03:42:00;;;;;;;12.85;4.75;;;;;;;13.81;100.00;101006.22;5004265;28;20547;-69
2023/07/04 03:44:26;;;;;;;11.68;5.15;;;;;;;13.80;100.00;101011.78;5032853;28;20021;-68
2023/07/04 03:46:51;;;;;;;12.50;5.43;;;;;;;13.77;100.00;101010.34;5039136;28;20516;-68
2023/07/04 03:49:16;;;;;;;16.90;4.43;;;;;;;13.77;100.00;101018.38;5050000;28;20167;-69
2023/07/04 03:51:42;;;;;;;15.05;4.72;;;;;;;13.73;100.00;101016.38;5031201;28;20057;-69
2023/07/04 03:54:07;;;;;;;10.30;4.88;;;;;;;13.69;100.00;101024.00;5038441;28;20037;-69
2023/07/04 03:56:32;;;;;;;13.80;4.35;;;;;;;13.67;100.00;101019.88;5048957;28;20523;-68
2023/07/04 03:58:58;;;;;;;8.80;4.30;;;;;;;13.62;100.00;101020.50;5050417;28;20476;-68
2023/07/04 04:01:24;;;;;;;15.02;4.60;;;;;;;13.56;100.00;101014.16;5050018;28;20473;-68
2023/07/04 04:03:53;;;;;;;9.50;3.28;;;;;;;13.54;100.00;101032.28;5050351;28;20510;-69
2023/07/04 04:06:18;;;;;;;12.70;4.43;;;;;;;13.56;100.00;101035.59;5050090;28;20040;-69
2023/07/04 04:08:44;;;;;;;13.20;4.45;;;;;;;13.53;100.00;101025.28;5032178;28;20034;-69
2023/07/04 04:11:09;;;;;;;11.07;3.65;;;;;;;13.50;100.00;101031.09;5036229;28;20040;-69
2023/07/04 04:13:34;;;;;;;10.20;4.38;;;;;;;13.54;100.00;101026.13;5048136;28;20032;-69
2023/07/04 04:16:00;;;;;;;8.75;4.15;;;;;;;13.57;100.00;101023.84;5037642;28;20029;-69
2023/07/04 04:18:25;;;;;;;11.13;4.32;;;;;;;13.58;100.00;101017.44;5049809;28;20092;-69
2023/07/04 04:20:50;;;;;;;14.50;5.05;;;;;;;13.64;100.00;101020.31;5047910;28;20037;-69
2023/07/04 04:23:17;;;;;;;12.18;4.38;;;;;;;13.63;100.00;101029.41;5037753;28;20037;-69
2023/07/04 04:25:42;;;;;;;18.20;5.35;;;;;;;13.63;100.00;101027.53;5049526;28;20037;-69
2023/07/04 04:28:08;;;;;;;10.82;4.80;;;;;;;13.61;100.00;101026.09;5049552;28;20115;-69
2023/07/04 04:30:34;;;;;;;23.95;6.60;;;;;;;13.63;100.00;101030.22;5049638;28;20025;-69
2023/07/04 04:33:02;;;;;;;20.40;6.53;;;;;;;13.71;100.00;101027.28;5042674;28;20090;-69
2023/07/04 04:35:28;;;;;;;15.20;4.80;;;;;;;13.78;100.00;101037.97;5033824;28;20029;-69
2023/07/04 04:37:53;;;;;;;15.73;5.75;;;;;;;13.88;100.00;101037.53;5012628;28;20503;-69
2023/07/04 04:40:19;;;;;;;15.55;4.25;;;;;;;13.95;100.00;101044.50;5039418;28;20033;-68
2023/07/04 04:42:44;;;;;;;12.52;4.70;;;;;;;14.04;100.00;101047.75;5030706;28;20044;-68
2023/07/04 04:45:12;;;;;;;14.40;4.72;;;;;;;14.13;100.00;101048.34;5030247;28;20643;-69
2023/07/04 04:47:39;;;;;;;12.93;4.57;;;;;;;14.30;100.00;101056.69;5030014;28;20046;-69
2023/07/04 04:50:05;;;;;;;18.30;4.90;;;;;;;14.37;100.00;101058.28;5030145;28;20488;-68
2023/07/04 04:52:31;;;;;;;15.15;4.78;;;;;;;14.42;100.00;101058.47;5030057;28;20055;-69
2023/07/04 04:54:57;;;;;;;21.73;7.00;;;;;;;14.43;100.00;101056.59;5030096;28;20512;-68
2023/07/04 04:57:23;;;;;;;20.40;6.50;;;;;;;14.41;100.00;101050.63;5029973;28;20026;-68
2023/07/04 04:59:50;;;;;;;24.80;6.97;;;;;;;14.33;100.00;101050.88;5029941;28;20041;-68
2023/07/04 05:02:15;;;;;;;14.23;4.30;;;;;;;14.39;100.00;101053.53;5030011;28;20116;-68
2023/07/04 05:04:41;;;;;;;19.65;4.50;;;;;;;14.45;100.00;101058.00;5030303;28;20156;-68
2023/07/04 05:07:07;;;;;;;16.83;6.25;;;;;;;14.52;100.00;101057.16;5038710;28;20079;-68
2023/07/04 05:09:33;;;;;;;14.18;4.93;;;;;;;14.58;100.00;101065.19;5049343;28;20539;-68
2023/07/04 05:12:00;;;;;;;13.40;4.70;;;;;;;14.62;100.00;101055.66;5048884;28;20036;-69
2023/07/04 05:14:26;;;;;;;15.10;5.32;;;;;;;14.61;100.00;101053.19;5047310;28;20119;-68
2023/07/04 05:16:51;;;;;;;21.17;6.60;;;;;;;14.55;100.00;101054.06;5031270;28;21016;-69
2023/07/04 05:19:16;;;;;;;21.52;5.53;;;;;;;14.59;100.00;101056.13;5029879;28;20148;-68
2023/07/04 05:21:42;;;;;;;15.20;5.60;;;;;;;14.55;100.00;101056.75;5037149;28;20538;-68
2023/07/04 05:24:07;;;;;;;16.90;5.05;;;;;;;14.56;100.00;101064.56;5039909;28;20044;-68
2023/07/04 05:26:33;;;;;;;16.00;5.45;;;;;;;14.54;100.00;101063.16;5029664;28;20036;-69
2023/07/04 05:28:59;;;;;;;15.57;4.93;;;;;;;14.58;100.00;101064.38;5029817;28;20037;-69
2023/07/04 05:31:32;;;;;;;18.48;5.15;;;;;;;14.61;100.00;101058.56;5029763;28;20029;-68
2023/07/04 05:33:57;;;;;;;14.82;5.95;;;;;;;14.67;100.00;101063.88;5029566;28;20029;-68
2023/07/04 05:36:29;;;;;;;16.75;6.25;;;;;;;14.76;100.00;101072.50;5037062;28;20082;-68
2023/07/04 05:38:56;;;;;;;17.63;5.45;;;;;;;14.79;100.00;101072.03;5048717;28;20031;-68
2023/07/04 05:41:25;;;;;;;18.80;5.88;;;;;;;14.85;100.00;101071.16;5048519;28;20028;-68
2023/07/04 05:43:50;;;;;;;16.40;5.60;;;;;;;14.88;100.00;101070.75;5048635;28;20035;-68
2023/07/04 05:46:17;;;;;;;15.77;5.15;;;;;;;14.94;100.00;101078.97;5030231;28;20053;-68
2023/07/04 05:48:43;;;;;;;19.65;5.85;;;;;;;14.94;100.00;101071.72;5048584;28;20036;-68
2023/07/04 05:51:11;;;;;;;19.67;6.60;;;;;;;15.02;100.00;101076.00;5048476;28;20114;-68
2023/07/04 05:53:40;;;;;;;18.70;6.43;;;;;;;15.08;100.00;101083.16;5048431;28;20071;-68
2023/07/04 05:56:09;;;;;;;24.33;7.70;;;;;;;15.21;100.00;101076.84;5048605;28;20032;-68
2023/07/04 05:58:36;;;;;;;14.93;6.72;;;;;;;15.43;100.00;101071.84;5028625;28;20039;-69
2023/07/04 06:01:37;;;;;;;13.98;4.80;;;;;;;15.59;100.00;101081.19;5029259;28;20481;-68
2023/07/04 06:04:04;;;;;;;18.40;6.07;;;;;;;15.67;100.00;101067.47;5025218;28;20056;-68
2023/07/04 06:06:53;;;;;;;21.98;7.93;;;;;;;15.78;100.00;101070.25;5029414;28;20033;-68
2023/07/04 06:09:20;;;;;;;22.58;5.05;;;;;;;15.65;100.00;101075.75;5016507;28;20046;-68
2023/07/04 06:11:47;;;;;;;20.42;5.75;;;;;;;15.61;100.00;101082.59;5042967;28;20527;-68
2023/07/04 06:14:24;;;;;;;18.45;5.18;;;;;;;15.60;100.00;101077.47;5029296;28;20026;-68
2023/07/04 06:16:50;;;;;;;18.25;5.32;;;;;;;15.60;100.00;101093.59;5029154;28;20032;-68
2023/07/04 06:19:15;;;;;;;16.45;5.88;;;;;;;15.62;100.00;101089.66;5029362;28;20034;-68
2023/07/04 06:21:40;;;;;;;22.40;5.82;;;;;;;15.65;100.00;101093.75;5033070;28;20087;-68
2023/07/04 06:24:06;;;;;;;12.85;4.40;;;;;;;15.65;100.00;101101.81;5047102;28;20049;-68
2023/07/04 06:26:32;;;;;;;14.98;4.15;;;;;;;15.65;100.00;101099.94;5033043;28;20029;-67
2023/07/04 06:28:58;;;;;;;12.77;3.33;;;;;;;15.69;100.00;101100.34;5037288;28;20041;-68
2023/07/04 06:31:25;;;;;;;18.17;5.28;;;;;;;15.72;100.00;101106.13;5052001;28;20456;-67
2023/07/04 06:33:50;;;;;;;12.57;3.58;;;;;;;15.72;100.00;101111.50;5051964;28;20033;-68
2023/07/04 06:36:16;;;;;;;21.92;6.13;;;;;;;15.75;100.00;101108.34;5051569;28;20044;-67
2023/07/04 06:38:42;;;;;;;14.57;3.70;;;;;;;15.82;100.00;101107.44;5051859;28;20131;-68
2023/07/04 06:41:15;;;;;;;11.50;3.83;;;;;;;15.91;100.00;101106.91;5051629;28;20029;-68
2023/07/04 06:43:43;;;;;;;18.10;4.10;;;;;;;15.97;100.00;101122.16;5033943;28;20041;-68
2023/07/04 06:46:10;;;;;;;15.75;5.25;;;;;;;15.95;100.00;101118.84;5051560;28;20562;-68
2023/07/04 06:48:36;;;;;;;15.35;3.90;;;;;;;15.93;100.00;101120.16;5042247;28;20033;-68
2023/07/04 06:51:06;;;;;;;12.13;3.53;;;;;;;15.90;100.00;101115.19;5031360;28;20032;-68
2023/07/04 06:53:34;;;;;;;16.73;4.85;;;;;;;15.99;100.00;101132.69;5035524;28;20021;-68
2023/07/04 06:56:13;;;;;;;14.40;5.32;;;;;;;16.08;99.39;101122.44;5051641;28;20391;-68
2023/07/04 06:58:41;;;;;;;13.60;4.90;;;;;;;16.11;100.00;101127.34;5051039;28;20037;-68
2023/07/04 07:01:07;;;;;;;11.50;3.67;;;;;;;16.16;97.05;101138.25;5051470;28;20036;-68
2023/07/04 07:03:33;;;;;;;16.38;4.97;;;;;;;16.31;99.43;101143.25;5051414;28;20112;-68
2023/07/04 07:06:03;;;;;;;15.35;5.43;;;;;;;16.34;97.76;101124.78;5051262;28;20524;-68
2023/07/04 07:08:28;;;;;;;13.68;5.32;;;;;;;16.50;99.51;101139.47;5051210;28;20033;-68
2023/07/04 07:10:59;;;;;;;10.82;3.30;;;;;;;16.68;97.86;101146.66;5051034;28;20095;-68
2023/07/04 07:13:25;;;;;;;13.52;5.38;;;;;;;16.78;93.57;101151.53;5051373;28;20021;-68
2023/07/04 07:15:51;;;;;;;12.02;4.05;;;;;;;16.73;89.99;101149.50;5051087;28;20098;-68
2023/07/04 07:18:17;;;;;;;10.48;4.18;;;;;;;16.73;92.67;101140.59;5051285;28;20554;-68
2023/07/04 07:20:42;;;;;;;13.15;4.65;;;;;;;16.87;92.84;101150.13;5051180;28;20067;-68
2023/07/04 07:23:09;;;;;;;11.18;3.97;;;;;;;16.99;90.31;101147.47;5050882;28;20037;-68
2023/07/04 07:25:35;;;;;;;11.65;4.38;;;;;;;17.06;88.48;101151.72;5050619;28;20083;-68
2023/07/04 07:28:00;;;;;;;15.20;5.28;;;;;;;17.01;85.76;101134.59;5031769;28;20033;-68
2023/07/04 07:30:26;;;;;;;17.48;4.95;;;;;;;17.06;87.34;101157.09;5031543;28;20033;-68
2023/07/04 07:32:51;;;;;;;14.77;4.22;;;;;;;17.01;88.72;101151.59;5030083;28;20361;-68
2023/07/04 07:35:16;;;;;;;10.43;4.07;;;;;;;17.05;87.42;101157.31;5045420;28;20029;-68
2023/07/04 07:37:42;;;;;;;11.10;4.45;;;;;;;16.94;84.04;101156.25;5031575;28;20029;-69
2023/07/04 07:40:08;;;;;;;14.73;3.95;;;;;;;16.94;87.69;101177.00;5013927;28;20118;-68
2023/07/04 07:42:36;;;;;;;15.35;4.82;;;;;;;17.02;86.22;101161.28;5031028;28;20029;-69
2023/07/04 07:45:01;;;;;;;10.57;3.92;;;;;;;17.00;83.45;101167.97;5040389;28;20029;-69
2023/07/04 07:47:26;;;;;;;14.63;5.45;;;;;;;16.90;85.20;101163.16;5050635;28;20064;-69
2023/07/04 07:49:52;;;;;;;9.35;4.38;;;;;;;16.95;83.03;101168.69;5050585;28;20112;-69
2023/07/04 07:52:17;;;;;;;12.27;4.22;;;;;;;17.00;80.94;101171.50;5050593;28;21070;-69
2023/07/04 07:54:43;;;;;;;13.20;4.00;;;;;;;17.08;81.04;101170.31;5050614;28;20032;-69
2023/07/04 07:57:09;;;;;;;13.90;4.05;;;;;;;17.30;82.86;101174.09;5050255;28;20483;-69
2023/07/04 07:59:34;;;;;;;8.73;3.45;;;;;;;17.34;78.42;101173.63;5050453;28;20061;-69
2023/07/04 08:02:01;;;;;;;10.95;4.15;;;;;;;17.40;80.56;101165.44;5033123;28;20465;-69
2023/07/04 08:04:26;;;;;;;11.43;3.58;;;;;;;17.52;82.46;101168.13;5031099;28;20036;-69
2023/07/04 08:06:52;;;;;;;13.00;3.30;;;;;;;17.71;78.33;101164.25;5031432;28;20026;-70
2023/07/04 08:09:19;;;;;;;10.13;3.88;;;;;;;17.91;78.08;101173.88;5013083;28;20033;-69
2023/07/04 08:11:46;;;;;;;9.88;3.40;;;;;;;17.90;74.14;101173.06;5031433;28;20021;-69
2023/07/04 08:14:15;;;;;;;12.20;4.43;;;;;;;18.27;72.80;101167.34;5031047;28;20483;-70
2023/07/04 08:16:50;;;;;;;8.10;3.03;;;;;;;19.37;71.53;101172.50;5031188;28;20025;-69
2023/07/04 08:19:18;;;;;;;8.95;3.42;;;;;;;20.33;64.42;101177.56;5030827;28;20026;-69
2023/07/04 08:21:44;;;;;;;8.25;2.95;;;;;;;20.69;61.76;101175.28;5030897;28;20103;-70
2023/07/04 08:24:10;;;;;;;9.93;3.53;;;;;;;21.02;58.29;101157.97;5030563;28;20036;-69
2023/07/04 08:26:38;;;;;;;8.02;3.08;;;;;;;21.92;58.69;101160.72;5030736;28;20029;-69
2023/07/04 08:29:05;;;;;;;10.70;3.47;;;;;;;21.95;58.66;101175.66;5030682;28;20068;-69
2023/07/04 08:31:31;;;;;;;16.27;4.22;;;;;;;21.31;56.44;101188.28;5047256;28;20040;-70
2023/07/04 08:33:56;;;;;;;8.32;3.50;;;;;;;21.39;57.56;101187.03;5049767;28;20037;-69
2023/07/04 08:36:22;;;;;;;11.63;4.70;;;;;;;21.09;57.88;101190.28;5049400;28;20063;-70
2023/07/04 08:38:48;;;;;;;13.88;3.35;;;;;;;21.98;58.24;101175.13;5049632;28;20033;-70
2023/07/04 08:41:38;;;;;;;7.40;2.47;;;;;;;23.62;54.85;101174.25;5049665;28;20032;-70
2023/07/04 08:44:34;;;;;;;9.38;3.45;;;;;;;24.70;53.19;101157.44;5048977;28;20112;-69
2023/07/04 08:47:00;;;;;;;6.97;2.72;;;;;;;25.55;45.75;101167.09;5049553;28;20060;-70
2023/07/04 08:49:34;;;;;;;10.90;2.65;;;;;;;25.56;42.56;101164.06;5049288;28;20024;-70
2023/07/04 08:52:05;;;;;;;9.45;2.67;;;;;;;25.58;42.63;101161.06;5049681;28;20021;-70
2023/07/04 08:54:33;;;;;;;6.07;2.72;;;;;;;25.66;41.29;101162.34;5049514;28;20087;-70
2023/07/04 08:57:03;;;;;;;8.25;2.95;;;;;;;26.33;42.32;101159.59;5030390;28;20037;-70
2023/07/04 08:59:37;;;;;;;8.35;2.58;;;;;;;26.91;39.67;101172.97;5030141;28;20215;-70
2023/07/04 09:02:35;;;;;;;10.43;2.65;;;;;;;26.91;40.90;101177.59;5030027;28;20036;-69
2023/07/04 09:05:20;;;;;;;7.22;2.90;;;;;;;25.65;41.62;101177.06;5029909;28;20112;-70
2023/07/04 09:08:12;;;;;;;10.65;2.60;;;;;;;24.37;44.04;101184.34;5049190;28;20029;-70
2023/07/04 09:10:44;;;;;;;10.40;3.13;;;;;;;23.54;46.11;101176.75;5049222;28;20029;-70
2023/07/04 09:13:15;;;;;;;10.82;2.55;;;;;;;23.07;46.85;101175.16;5049215;28;20025;-70
2023/07/04 09:15:46;;;;;;;9.90;2.33;;;;;;;22.36;49.92;101176.66;5049010;28;20070;-70
2023/07/04 09:18:33;;;;;;;14.07;2.72;;;;;;;21.81;51.73;101191.63;5049011;28;20541;-70
2023/07/04 09:21:08;;;;;;;9.82;2.00;;;;;;;21.33;51.37;101191.56;5048829;28;20083;-70
2023/07/04 09:23:33;;;;;;;9.02;2.45;;;;;;;20.99;52.70;101196.47;5048729;28;20025;-70
2023/07/04 09:25:59;;;;;;;8.07;2.60;;;;;;;20.41;51.41;101193.41;5048611;28;20086;-70
2023/07/04 09:28:25;;;;;;;7.43;1.73;;;;;;;20.08;54.77;101197.06;5049047;28;20420;-70
2023/07/04 09:30:58;;;;;;;9.30;2.42;;;;;;;20.14;55.62;101202.28;5048751;28;20538;-70
2023/07/04 09:33:26;;;;;;;8.00;3.80;;;;;;;19.95;54.57;101197.44;5048946;28;20112;-70
2023/07/04 09:35:52;;;;;;;14.30;2.15;;;;;;;19.79;55.32;101216.19;5048697;28;20436;-66
2023/07/04 09:38:17;;;;;;;9.70;2.40;;;;;;;19.82;55.43;101202.13;5048586;28;20076;-70
2023/07/04 09:40:52;;;;;;;7.18;2.25;;;;;;;19.86;54.94;101199.78;5049007;28;20033;-69
2023/07/04 09:43:30;;;;;;;11.60;2.28;;;;;;;19.94;55.75;101207.47;5030827;28;20041;-69
2023/07/04 09:46:19;;;;;;;6.40;2.72;;;;;;;20.26;55.44;101204.06;5030409;28;20843;-69
2023/07/04 09:48:45;;;;;;;7.25;2.42;;;;;;;20.26;52.16;101206.78;5048346;28;20098;-69
2023/07/04 09:51:15;;;;;;;7.57;2.55;;;;;;;20.28;53.85;101201.94;5048430;28;20472;-70
2023/07/04 09:53:41;;;;;;;8.23;2.40;;;;;;;20.43;52.61;101198.56;5049220;28;20035;-69
2023/07/04 09:56:06;;;;;;;7.20;2.45;;;;;;;20.68;55.77;101206.19;5034549;28;20487;-70
2023/07/04 09:58:32;;;;;;;10.68;4.20;;;;;;;20.61;52.98;101206.38;5052550;28;20033;-70
2023/07/04 10:01:08;;;;;;;11.23;3.85;;;;;;;20.45;53.25;101196.41;5043899;28;20033;-71
2023/07/04 10:03:33;;;;;;;7.82;2.75;;;;;;;20.48;54.08;101207.56;5033281;28;20088;-69
2023/07/04 10:05:59;;;;;;;8.05;2.70;;;;;;;20.42;51.70;101214.00;5033914;28;20025;-69
2023/07/04 10:08:24;;;;;;;5.55;3.13;;;;;;;20.39;53.87;101211.81;5052832;28;20031;-69
2023/07/04 10:10:55;;;;;;;12.57;3.15;;;;;;;20.48;53.77;101202.13;5034409;28;20037;-69
2023/07/04 10:13:25;;;;;;;8.57;3.00;;;;;;;20.62;52.57;101207.19;5052778;28;20025;-70
2023/07/04 10:15:51;;;;;;;5.70;3.08;;;;;;;20.50;51.61;101213.53;5031253;28;20373;-69
2023/07/04 10:18:33;;;;;;;8.45;4.68;;;;;;;20.28;53.11;101205.44;5033412;28;20085;-69
2023/07/04 10:21:01;;;;;;;10.98;4.70;;;;;;;20.09;55.07;101210.34;5033186;28;20084;-69
2023/07/04 10:23:29;;;;;;;8.18;3.40;;;;;;;20.07;55.33;101198.16;5033185;28;20503;-69
2023/07/04 10:25:57;;;;;;;9.10;3.50;;;;;;;20.06;56.24;101202.72;5032803;28;20105;-70
2023/07/04 10:28:25;;;;;;;9.05;3.45;;;;;;;20.26;55.53;101210.28;5032825;28;20031;-69
2023/07/04 10:30:57;;;;;;;10.75;3.90;;;;;;;20.41;52.95;101203.41;5033228;28;20112;-70
2023/07/04 10:33:32;;;;;;;9.00;3.42;;;;;;;20.67;50.73;101209.94;5032822;28;20018;-69
2023/07/04 10:35:57;;;;;;;5.05;2.92;;;;;;;20.83;51.66;101202.78;5032659;28;20048;-70
2023/07/04 10:38:42;;;;;;;5.43;3.05;;;;;;;20.90;50.65;101206.94;5032737;28;20388;-69
2023/07/04 10:41:49;;;;;;;6.45;3.10;;;;;;;20.94;49.91;101199.94;5032842;28;20029;-70
2023/07/04 10:44:21;;;;;;;6.03;2.60;;;;;;;20.97;50.85;101196.69;4933173;29;20051;-69
2023/07/04 10:46:55;;;;;;;8.10;3.53;;;;;;;20.97;49.88;101202.13;5022384;28;20461;-70
2023/07/04 10:49:24;;;;;;;7.55;2.70;;;;;;;20.81;50.68;101210.38;5051531;28;20043;-69
2023/07/04 10:52:00;;;;;;;6.05;3.10;;;;;;;20.63;51.66;101192.59;5051649;28;20396;-69
2023/07/04 10:54:25;;;;;;;8.77;2.97;;;;;;;20.31;52.89;101209.53;5051771;28;20534;-69
2023/07/04 10:56:58;;;;;;;15.15;2.58;;;;;;;20.12;54.73;101206.31;5051314;28;20037;-69
2023/07/04 10:59:31;;;;;;;12.02;3.45;;;;;;;20.17;54.14;101209.09;5020176;28;20429;-69
2023/07/04 11:02:11;;;;;;;9.80;2.30;;;;;;;20.26;55.89;101209.47;5032667;28;20025;-70
2023/07/04 11:04:39;;;;;;;7.15;2.80;;;;;;;20.19;54.87;101209.66;5032546;28;20083;-70
2023/07/04 11:07:15;;;;;;;8.25;3.20;;;;;;;20.09;54.70;101209.53;5031645;28;20044;-69
2023/07/04 11:09:42;;;;;;;4.65;2.33;;;;;;;20.08;57.34;101213.31;5050988;28;20376;-70
2023/07/04 11:12:15;;;;;;;7.43;2.63;;;;;;;20.11;54.56;101204.69;5050746;28;20028;-70
2023/07/04 11:14:43;;;;;;;5.32;2.50;;;;;;;20.03;54.52;101219.47;5050925;28;20036;-70
2023/07/04 11:17:17;;;;;;;3.95;2.03;;;;;;;19.97;54.73;101201.53;5051224;28;20116;-70
2023/07/04 11:20:17;;;;;;;7.55;2.45;;;;;;;20.01;54.47;101212.69;5050883;28;20029;-70